Time;durP1;ratioP1;P1;durP2;ratioP2;P2;SDS_P1;SDS_P2;PMS_P1;PMS_P2;Temp;Humidity;BMP_temperature;BMP_pressure;BME280_temperature;BME280_humidity;BME280_pressure;Samples;Min_cycle;Max_cycle;Signal;HPM_P1;HPM_P2
2022/08/10 00:00:57;;;;;;;0.10;0.10;;;;;;;23.26;51.48;102199.75;5120809;28;20381;-36
2022/08/10 00:03:23;;;;;;;0.10;0.10;;;;;;;23.26;51.58;102202.53;5121393;28;20040;-34
2022/08/10 00:05:49;;;;;;;0.10;0.10;;;;;;;23.26;51.22;102199.75;5116614;28;20043;-34
2022/08/10 00:08:18;;;;;;;0.10;0.10;;;;;;;23.27;51.37;102201.44;5101823;28;20051;-34
2022/08/10 00:10:51;;;;;;;0.10;0.10;;;;;;;23.27;51.39;102186.69;5116963;28;20486;-34
2022/08/10 00:13:16;;;;;;;0.10;0.10;;;;;;;23.26;51.62;102188.63;5117792;28;20485;-34
2022/08/10 00:15:42;;;;;;;0.10;0.10;;;;;;;23.27;51.42;102193.09;5113728;28;20077;-34
2022/08/10 00:18:20;;;;;;;0.10;0.10;;;;;;;23.26;51.56;102185.84;5106969;28;20039;-35
2022/08/10 00:21:03;;;;;;;0.10;0.10;;;;;;;23.26;51.49;102187.78;5115259;28;20469;-34
2022/08/10 00:23:28;;;;;;;0.10;0.10;;;;;;;23.25;51.50;102181.41;5114020;28;20082;-34
2022/08/10 00:25:54;;;;;;;0.10;0.10;;;;;;;23.26;51.47;102183.06;5114863;28;20398;-34
2022/08/10 00:28:20;;;;;;;0.10;0.10;;;;;;;23.27;51.49;102181.13;5113799;28;20058;-34
2022/08/10 00:30:45;;;;;;;0.10;0.10;;;;;;;23.27;51.48;102183.91;5114037;28;20043;-34
2022/08/10 00:33:11;;;;;;;0.10;0.10;;;;;;;23.27;51.53;102186.69;5109630;28;20050;-34
2022/08/10 00:35:37;;;;;;;0.10;0.10;;;;;;;23.26;51.49;102177.50;5109590;28;20112;-34
2022/08/10 00:38:02;;;;;;;0.10;0.10;;;;;;;23.27;51.52;102186.69;5110658;28;20043;-34
2022/08/10 00:40:28;;;;;;;0.10;0.10;;;;;;;23.27;51.49;102183.91;5114034;28;20051;-34
2022/08/10 00:43:04;;;;;;;0.10;0.10;;;;;;;23.26;51.54;102174.72;5115292;28;20090;-34
2022/08/10 00:45:30;;;;;;;0.10;0.10;;;;;;;23.25;51.62;102178.63;5107823;28;20089;-34
2022/08/10 00:47:55;;;;;;;0.10;0.10;;;;;;;23.27;51.45;102175.56;5116168;28;20062;-34
2022/08/10 00:50:21;;;;;;;0.10;0.10;;;;;;;23.27;51.51;102178.34;5112753;28;20050;-34
2022/08/10 00:52:47;;;;;;;0.10;0.10;;;;;;;23.27;51.54;102170.00;5099573;28;20439;-34
2022/08/10 00:55:12;;;;;;;0.10;0.10;;;;;;;23.27;51.52;102164.44;5097724;28;21292;-34
2022/08/10 00:57:39;;;;;;;0.10;0.10;;;;;;;23.27;51.51;102162.53;5118539;28;20062;-34
2022/08/10 01:00:06;;;;;;;0.10;0.10;;;;;;;23.26;51.50;102166.38;5113860;28;20125;-34
2022/08/10 01:02:32;;;;;;;0.10;0.10;;;;;;;23.27;51.55;102172.78;5099786;28;20071;-34
2022/08/10 01:05:00;;;;;;;0.10;0.10;;;;;;;23.27;51.48;102164.44;5113124;28;20477;-34
2022/08/10 01:10:27;;;;;;;0.10;0.10;;;;;;;23.26;51.57;102171.13;5180289;27;20132;-34
2022/08/10 01:13:02;;;;;;;0.10;0.10;;;;;;;23.27;51.47;102164.44;5167484;27;20067;-34
2022/08/10 01:15:31;;;;;;;0.10;0.10;;;;;;;23.26;51.65;102169.16;5167308;27;20081;-34
2022/08/10 01:18:02;;;;;;;0.10;0.10;;;;;;;23.26;51.55;102174.72;5148745;27;20074;-34
2022/08/10 01:20:36;;;;;;;0.10;0.10;;;;;;;23.27;51.68;102164.44;5168381;27;20070;-35
2022/08/10 01:26:25;;;;;;;0.10;0.10;;;;;;;23.26;51.64;102162.78;5174770;27;20120;-33
2022/08/10 01:29:28;;;;;;;0.10;0.10;;;;;;;23.25;51.59;102164.72;5135474;27;20044;-34
2022/08/10 01:31:56;;;;;;;0.10;0.10;;;;;;;23.26;51.55;102155.28;5142099;27;20111;-34
2022/08/10 01:34:31;;;;;;;0.10;0.10;;;;;;;23.26;51.57;102162.78;5142989;27;20129;-34
2022/08/10 01:37:02;;;;;;;0.10;0.10;;;;;;;23.25;51.56;102159.16;5142659;27;20491;-34
2022/08/10 01:39:34;;;;;;;0.10;0.10;;;;;;;23.26;51.64;102158.06;5160604;27;20074;-34
2022/08/10 01:42:01;;;;;;;0.10;0.10;;;;;;;23.26;51.47;102154.44;5155727;27;20085;-34
2022/08/10 01:44:36;;;;;;;0.10;0.10;;;;;;;23.26;51.70;102155.28;5156178;27;20093;-34
2022/08/10 01:50:07;;;;;;;0.10;0.10;;;;;;;23.26;51.75;102152.50;5123694;27;20043;-34
2022/08/10 01:52:34;;;;;;;0.10;0.10;;;;;;;23.27;51.69;102147.75;5150584;27;20070;-34
2022/08/10 01:55:00;;;;;;;0.10;0.10;;;;;;;23.25;51.58;102150.00;5150217;27;20039;-34
2022/08/10 01:57:29;;;;;;;0.10;0.10;;;;;;;23.27;51.62;102153.31;5149157;27;20120;-34
2022/08/10 01:59:55;;;;;;;0.10;0.10;;;;;;;23.26;51.54;102146.94;5135534;27;20134;-34
2022/08/10 02:02:29;;;;;;;0.10;0.10;;;;;;;23.26;51.62;102148.88;5149513;27;20404;-34
2022/08/10 02:04:55;;;;;;;0.10;0.10;;;;;;;23.25;51.77;102145.28;5156876;27;20137;-34
2022/08/10 02:07:24;;;;;;;0.10;0.10;;;;;;;23.26;51.63;102149.72;5153443;27;20229;-34
2022/08/10 02:09:52;;;;;;;0.10;0.10;;;;;;;23.26;51.62;102143.31;5132081;27;20536;-34
2022/08/10 02:12:22;;;;;;;0.10;0.10;;;;;;;23.26;51.53;102146.09;5152594;27;20181;-34
2022/08/10 02:14:52;;;;;;;0.10;0.10;;;;;;;23.25;51.57;102159.16;5134668;27;20077;-35
2022/08/10 02:17:22;;;;;;;0.10;0.10;;;;;;;23.26;51.64;102155.28;5154480;27;20489;-34
2022/08/10 02:20:13;;;;;;;0.10;0.10;;;;;;;23.26;51.61;102146.09;5123357;27;20120;-34
2022/08/10 02:22:39;;;;;;;0.10;0.10;;;;;;;23.26;51.51;102162.78;5149882;27;20096;-34
2022/08/10 02:25:07;;;;;;;0.10;0.10;;;;;;;23.25;51.55;102153.63;5134194;27;20498;-34
2022/08/10 02:27:33;;;;;;;0.10;0.10;;;;;;;23.25;51.64;102152.78;5131644;27;20076;-34
2022/08/10 02:29:59;;;;;;;0.10;0.10;;;;;;;23.26;51.65;102154.44;5153386;27;20053;-34
2022/08/10 02:32:25;;;;;;;0.10;0.10;;;;;;;23.26;51.61;102162.78;5154325;27;20081;-34
2022/08/10 02:35:06;;;;;;;0.10;0.10;;;;;;;23.25;51.55;102153.63;5149317;27;20180;-34
2022/08/10 02:37:33;;;;;;;0.10;0.10;;;;;;;23.25;51.66;102153.63;5119861;27;20133;-34
2022/08/10 02:39:58;;;;;;;0.10;0.10;;;;;;;23.24;51.58;102151.94;5141960;27;20043;-34
2022/08/10 02:42:28;;;;;;;0.10;0.10;;;;;;;23.26;51.70;102160.00;5136491;27;20096;-34
2022/08/10 02:45:18;;;;;;;0.10;0.10;;;;;;;23.26;51.71;102157.22;5120688;27;20066;-34
2022/08/10 02:48:00;;;;;;;0.10;0.10;;;;;;;23.25;51.69;102159.16;5137838;27;20039;-34
2022/08/10 02:50:28;;;;;;;0.10;0.10;;;;;;;23.25;51.62;102161.94;5122687;27;20081;-34
2022/08/10 02:53:00;;;;;;;0.10;0.10;;;;;;;23.26;51.62;102168.34;5137865;27;20469;-34
2022/08/10 02:56:06;;;;;;;0.10;0.10;;;;;;;23.26;51.58;102171.13;5138489;27;20079;-35
2022/08/10 02:58:36;;;;;;;0.10;0.10;;;;;;;23.25;51.61;102152.78;5114212;27;20082;-34
2022/08/10 03:01:06;;;;;;;0.10;0.10;;;;;;;23.25;51.70;102159.16;5135298;27;20148;-34
2022/08/10 03:03:40;;;;;;;0.10;0.10;;;;;;;23.25;51.71;102145.28;5120939;27;20081;-34
2022/08/10 03:06:10;;;;;;;0.10;0.10;;;;;;;23.26;51.63;102151.66;5135209;27;20181;-34
2022/08/10 03:08:41;;;;;;;0.10;0.10;;;;;;;23.25;51.63;102148.06;5144233;27;20078;-34
2022/08/10 03:11:09;;;;;;;0.10;0.10;;;;;;;23.25;51.73;102150.84;5115193;27;20477;-34
2022/08/10 03:13:35;;;;;;;;;;;;;;;23.25;51.54;102148.06;5136141;27;20481;-34
2022/08/10 03:16:01;;;;;;;0.10;0.10;;;;;;;23.24;51.68;102151.94;5135762;27;19930;-34
2022/08/10 03:18:28;;;;;;;0.10;0.10;;;;;;;23.25;51.73;102142.50;5142568;27;20123;-34
2022/08/10 03:20:55;;;;;;;0.10;0.10;;;;;;;23.25;51.70;102148.06;5122322;27;20454;-34
2022/08/10 03:23:22;;;;;;;0.10;0.10;;;;;;;23.26;51.69;102154.44;5137948;27;20136;-34
2022/08/10 03:25:50;;;;;;;0.10;0.10;;;;;;;23.25;51.72;102138.88;5136375;27;20526;-34
2022/08/10 03:28:30;;;;;;;0.10;0.10;;;;;;;23.25;51.69;102142.50;5119240;27;20134;-34
2022/08/10 03:30:58;;;;;;;0.10;0.10;;;;;;;23.25;51.58;102145.28;5135418;27;21246;-34
2022/08/10 03:33:26;;;;;;;0.10;0.10;;;;;;;23.25;51.82;102144.44;5139824;27;20066;-34
2022/08/10 03:35:52;;;;;;;0.10;0.10;;;;;;;23.25;51.75;102136.94;5137415;27;20177;-34
2022/08/10 03:38:39;;;;;;;0.10;0.10;;;;;;;23.25;51.75;102145.28;5112303;27;20050;-34
2022/08/10 03:41:08;;;;;;;0.10;0.10;;;;;;;23.25;51.66;102138.88;5120404;27;20072;-34
2022/08/10 03:43:34;;;;;;;0.10;0.10;;;;;;;23.26;51.72;102135.00;5138412;27;20088;-34
2022/08/10 03:46:02;;;;;;;0.10;0.10;;;;;;;23.25;51.85;102142.50;5137556;27;20141;-34
2022/08/10 03:48:28;;;;;;;0.00;0.00;;;;;;;23.26;51.63;102143.31;5138914;27;20066;-34
2022/08/10 03:51:15;;;;;;;0.10;0.10;;;;;;;23.25;51.64;102141.66;5124844;27;20096;-34
2022/08/10 03:53:41;;;;;;;0.10;0.10;;;;;;;23.25;51.65;102144.44;5138688;27;20172;-34
2022/08/10 03:56:27;;;;;;;0.10;0.10;;;;;;;23.24;51.73;102143.63;5118358;27;20107;-34
2022/08/10 03:58:58;;;;;;;0.10;0.10;;;;;;;23.24;51.75;102143.63;5137642;27;20134;-34
2022/08/10 04:01:24;;;;;;;0.10;0.10;;;;;;;23.25;51.94;102148.06;5116747;27;20038;-34
2022/08/10 04:04:10;;;;;;;0.10;0.10;;;;;;;23.25;51.74;102145.28;5110109;27;20096;-35
2022/08/10 04:06:40;;;;;;;0.10;0.10;;;;;;;23.24;51.75;102140.84;5137476;27;20133;-34
2022/08/10 04:09:06;;;;;;;0.10;0.10;;;;;;;23.25;51.70;102141.66;5135810;27;20047;-34
2022/08/10 04:11:32;;;;;;;0.10;0.10;;;;;;;23.24;51.60;102145.56;5132708;27;20058;-34
2022/08/10 04:13:57;;;;;;;0.10;0.10;;;;;;;23.25;51.87;102150.00;5136372;27;20099;-34
2022/08/10 04:16:23;;;;;;;0.10;0.10;;;;;;;23.24;51.74;102149.19;5130791;27;20035;-34
2022/08/10 04:18:49;;;;;;;0.10;0.10;;;;;;;23.24;51.75;102151.94;5135986;27;20060;-34
2022/08/10 04:21:18;;;;;;;0.10;0.10;;;;;;;23.24;51.76;102151.94;5139252;27;20058;-34
2022/08/10 04:23:46;;;;;;;0.10;0.10;;;;;;;23.24;51.82;102154.72;5141644;27;20484;-34
2022/08/10 04:26:18;;;;;;;0.10;0.10;;;;;;;23.24;51.85;102151.13;5120367;27;20047;-34
2022/08/10 04:28:44;;;;;;;0.10;0.10;;;;;;;23.23;51.73;102153.06;5136705;27;20081;-35
2022/08/10 04:31:11;;;;;;;0.10;0.10;;;;;;;23.24;51.81;102156.69;5137285;27;20039;-34
2022/08/10 04:33:41;;;;;;;0.10;0.10;;;;;;;23.24;51.79;102156.69;5135881;27;20077;-34
2022/08/10 04:36:09;;;;;;;0.10;0.10;;;;;;;23.23;51.77;102158.63;5118004;27;20174;-34
2022/08/10 04:38:35;;;;;;;0.10;0.10;;;;;;;23.25;51.74;102159.16;5140977;27;20515;-34
2022/08/10 04:41:00;;;;;;;0.10;0.10;;;;;;;23.23;51.91;102155.84;5121791;27;20122;-34
2022/08/10 04:43:26;;;;;;;0.10;0.10;;;;;;;23.24;51.76;102159.47;5120000;27;20117;-34
2022/08/10 04:45:52;;;;;;;0.10;0.10;;;;;;;23.24;51.65;102156.69;5134149;27;20039;-34
2022/08/10 04:48:23;;;;;;;0.10;0.10;;;;;;;23.23;51.65;102158.63;5140177;27;20079;-34
2022/08/10 04:51:09;;;;;;;;;;;;;;;23.22;51.52;102151.38;5122788;27;20386;-34
2022/08/10 04:53:41;;;;;;;0.10;0.10;;;;;;;23.22;51.52;102156.94;5139519;27;19919;-34
2022/08/10 04:56:27;;;;;;;0.10;0.10;;;;;;;23.22;51.76;102158.88;5117061;27;20047;-34
2022/08/10 04:58:58;;;;;;;0.10;0.10;;;;;;;23.24;51.50;102159.47;5136033;27;20317;-34
2022/08/10 05:01:23;;;;;;;0.10;0.10;;;;;;;23.23;51.76;102155.03;5138838;27;20089;-34
2022/08/10 05:03:50;;;;;;;0.10;0.10;;;;;;;23.22;51.64;102154.16;5136119;27;20066;-34
2022/08/10 05:06:36;;;;;;;0.10;0.10;;;;;;;23.22;51.65;102156.94;5119703;27;20398;-34
2022/08/10 05:09:01;;;;;;;0.10;0.10;;;;;;;23.22;51.69;102158.88;5139112;27;20053;-35
2022/08/10 05:11:27;;;;;;;0.10;0.10;;;;;;;23.23;51.16;102155.03;5135206;27;20389;-34
2022/08/10 05:13:52;;;;;;;0.10;0.10;;;;;;;23.22;51.44;102153.34;5134567;27;20149;-35
2022/08/10 05:16:18;;;;;;;0.10;0.10;;;;;;;23.23;51.60;102160.59;5136297;27;20043;-34
2022/08/10 05:18:58;;;;;;;0.10;0.10;;;;;;;23.22;51.88;102156.94;5131817;27;20047;-34
2022/08/10 05:21:23;;;;;;;0.10;0.10;;;;;;;23.22;51.73;102158.88;5133633;27;20043;-35
2022/08/10 05:24:09;;;;;;;0.10;0.10;;;;;;;23.23;51.63;102157.81;5121502;27;20035;-34
2022/08/10 05:26:34;;;;;;;0.10;0.10;;;;;;;23.22;51.73;102156.94;5132997;27;20078;-34
2022/08/10 05:29:20;;;;;;;0.10;0.10;;;;;;;23.22;51.63;102154.16;5117730;27;20385;-34
2022/08/10 05:31:46;;;;;;;0.10;0.10;;;;;;;23.23;51.54;102153.06;5113656;27;20093;-34
2022/08/10 05:34:12;;;;;;;0.10;0.10;;;;;;;23.23;51.74;102155.03;5115468;27;20100;-34
2022/08/10 05:36:46;;;;;;;0.10;0.10;;;;;;;23.22;51.60;102161.66;5117555;27;20066;-34
2022/08/10 05:39:13;;;;;;;0.10;0.10;;;;;;;23.23;51.51;102166.13;5132891;27;20540;-34
2022/08/10 05:41:39;;;;;;;0.10;0.10;;;;;;;23.23;51.85;102172.53;5133270;27;20035;-34
2022/08/10 05:44:11;;;;;;;0.10;0.10;;;;;;;23.22;51.71;102170.84;5139620;27;20146;-34
2022/08/10 05:46:37;;;;;;;0.10;0.10;;;;;;;23.23;51.79;102168.91;5133529;27;20047;-34
2022/08/10 05:49:02;;;;;;;0.10;0.10;;;;;;;23.22;51.72;102168.06;5132610;27;20075;-35
2022/08/10 05:51:28;;;;;;;0.10;0.10;;;;;;;23.22;51.55;102173.63;5137328;27;20094;-34
2022/08/10 05:53:54;;;;;;;0.10;0.10;;;;;;;23.22;51.38;102176.41;5117593;27;20142;-34
2022/08/10 05:56:33;;;;;;;0.10;0.10;;;;;;;23.22;51.56;102178.34;5133501;27;20046;-33
2022/08/10 05:59:20;;;;;;;0.10;0.10;;;;;;;23.23;51.70;102172.53;5112450;27;20417;-34
2022/08/10 06:02:06;;;;;;;0.10;0.10;;;;;;;23.24;51.66;102170.56;5113157;27;20035;-34
2022/08/10 06:04:53;;;;;;;0.10;0.10;;;;;;;23.22;51.74;102179.19;5118655;27;20430;-35
2022/08/10 06:07:20;;;;;;;0.10;0.10;;;;;;;23.22;51.66;102179.19;5131049;27;20134;-34
2022/08/10 06:09:47;;;;;;;;;;;;;;;23.22;51.77;102179.19;5123908;27;20070;-35
2022/08/10 06:12:27;;;;;;;0.10;0.10;;;;;;;23.21;51.69;102173.91;5131886;27;19919;-35
2022/08/10 06:15:00;;;;;;;0.10;0.10;;;;;;;23.21;51.73;102174.72;5132126;27;20051;-36
2022/08/10 06:17:31;;;;;;;0.10;0.10;;;;;;;23.23;51.74;102177.25;5119124;27;20039;-34
2022/08/10 06:19:58;;;;;;;0.10;0.10;;;;;;;23.21;51.78;102173.91;5120545;27;20140;-34
2022/08/10 06:22:26;;;;;;;0.10;0.10;;;;;;;23.22;51.61;102181.13;5112269;27;20074;-34
2022/08/10 06:24:55;;;;;;;0.10;0.10;;;;;;;23.21;51.76;102179.47;5132044;27;20051;-35
2022/08/10 06:27:41;;;;;;;0.10;0.10;;;;;;;23.22;51.69;102176.41;5111459;27;20092;-34
2022/08/10 06:30:07;;;;;;;0.10;0.10;;;;;;;23.23;51.25;102180.03;5126128;27;20054;-35
2022/08/10 06:32:48;;;;;;;0.10;0.10;;;;;;;23.24;51.30;102184.47;5126072;27;20047;-34
2022/08/10 06:35:14;;;;;;;0.10;0.10;;;;;;;23.22;51.55;102179.19;5127927;27;20471;-35
2022/08/10 06:37:41;;;;;;;0.10;0.10;;;;;;;23.23;51.56;102180.03;5131326;27;20050;-34
2022/08/10 06:40:07;;;;;;;0.10;0.10;;;;;;;23.22;51.78;102181.13;5116399;27;20153;-34
2022/08/10 06:42:37;;;;;;;0.10;0.10;;;;;;;23.23;51.81;102182.81;5129249;27;20047;-34
2022/08/10 06:45:08;;;;;;;0.10;0.10;;;;;;;23.22;51.54;102172.78;5108357;27;20043;-34
2022/08/10 06:47:38;;;;;;;0.10;0.10;;;;;;;23.22;51.14;102181.94;5088091;27;20126;-35
2022/08/10 06:50:12;;;;;;;0.10;0.10;;;;;;;23.22;51.66;102176.41;5101798;27;20135;-34
2022/08/10 06:52:38;;;;;;;0.10;0.10;;;;;;;23.22;51.76;102181.13;5083374;27;20604;-34
2022/08/10 06:55:07;;;;;;;0.10;0.10;;;;;;;23.23;51.73;102182.81;5113165;27;20385;-34
2022/08/10 06:57:36;;;;;;;0.10;0.10;;;;;;;23.22;51.84;102173.63;5116714;27;20142;-34
2022/08/10 07:00:03;;;;;;;0.10;0.10;;;;;;;23.23;51.63;102180.88;5101253;27;20240;-34
2022/08/10 07:02:35;;;;;;;;;;;;;;;23.23;51.34;102178.09;5115608;27;20045;-34
2022/08/10 07:05:04;;;;;;;0.10;0.10;;;;;;;23.23;51.03;102180.03;5112147;27;20006;-37
2022/08/10 07:07:31;;;;;;;0.10;0.10;;;;;;;23.24;51.49;102182.53;5116902;27;20081;-37
2022/08/10 07:09:59;;;;;;;0.10;0.10;;;;;;;23.27;50.81;102181.13;5072525;27;21263;-34
2022/08/10 07:12:25;;;;;;;0.10;0.10;;;;;;;23.27;50.21;102184.75;5098313;27;20050;-37
2022/08/10 07:14:52;;;;;;;0.10;0.10;;;;;;;23.27;50.83;102184.75;5121864;27;20063;-37
2022/08/10 07:17:20;;;;;;;0.10;0.10;;;;;;;23.26;51.26;102185.00;5107581;27;20099;-37
2022/08/10 07:19:46;;;;;;;;;;;;;;;23.25;51.15;102180.56;5108566;27;20090;-37
2022/08/10 07:22:19;;;;;;;0.10;0.10;;;;;;;23.24;51.24;102188.09;5109315;27;19933;-38
2022/08/10 07:25:05;;;;;;;;;;;;;;;23.26;50.76;102185.00;5106982;27;20644;-47
2022/08/10 07:27:33;;;;;;;0.10;0.10;;;;;;;23.20;49.59;102186.97;5097062;27;20018;-45
2022/08/10 07:30:19;;;;;;;0.10;0.10;;;;;;;23.23;49.78;102182.81;5099337;27;20047;-38
2022/08/10 07:32:47;;;;;;;0.10;0.10;;;;;;;23.26;49.63;102187.78;5122243;27;20051;-40
2022/08/10 07:35:14;;;;;;;0.10;0.10;;;;;;;23.24;49.99;102185.31;5096131;27;20126;-43
2022/08/10 07:37:41;;;;;;;0.10;0.10;;;;;;;23.27;49.82;102187.53;5118720;27;21374;-39
2022/08/10 07:40:07;;;;;;;0.10;0.10;;;;;;;23.33;50.20;102193.91;5098286;27;20134;-39
2022/08/10 07:42:35;;;;;;;0.10;0.10;;;;;;;23.32;49.22;102191.44;5105450;27;20099;-41
2022/08/10 07:45:04;;;;;;;0.10;0.10;;;;;;;23.31;48.90;102192.50;5100160;27;20101;-37
2022/08/10 07:47:33;;;;;;;0.10;0.10;;;;;;;23.32;49.50;102194.22;5120479;27;20079;-38
2022/08/10 07:50:19;;;;;;;0.10;0.10;;;;;;;23.32;50.12;102202.53;5073847;27;20051;-37
2022/08/10 07:52:46;;;;;;;0.10;0.10;;;;;;;23.35;49.90;102200.03;5107046;27;20053;-37
2022/08/10 07:55:15;;;;;;;0.10;0.10;;;;;;;23.39;48.67;102203.06;5122111;27;20113;-37
2022/08/10 07:57:42;;;;;;;0.15;0.15;;;;;;;23.37;49.42;102200.59;5119893;27;20182;-38
2022/08/10 08:00:10;;;;;;;0.10;0.10;;;;;;;23.37;49.45;102205.31;5104240;27;20888;-38
2022/08/10 08:02:45;;;;;;;0.10;0.10;;;;;;;23.36;49.68;102207.28;5119892;27;20078;-38
2022/08/10 08:05:12;;;;;;;0.10;0.10;;;;;;;23.39;49.90;102208.63;5083295;27;20166;-38
2022/08/10 08:08:00;;;;;;;0.10;0.10;;;;;;;23.39;50.22;102203.91;5100312;27;20096;-38
2022/08/10 08:10:28;;;;;;;0.10;0.10;;;;;;;23.50;50.14;102213.91;5116380;27;20047;-38
2022/08/10 08:12:56;;;;;;;0.10;0.10;;;;;;;23.46;50.47;102207.25;5113578;27;20130;-38
2022/08/10 08:15:22;;;;;;;0.10;0.10;;;;;;;23.44;50.65;102209.47;5113792;27;20089;-38
2022/08/10 08:18:10;;;;;;;0.10;0.10;;;;;;;23.45;50.39;102210.31;5085865;27;20043;-37
2022/08/10 08:20:36;;;;;;;0.10;0.10;;;;;;;23.44;50.48;102203.06;5121435;27;20040;-38
2022/08/10 08:23:04;;;;;;;0.10;0.10;;;;;;;23.44;50.73;102203.06;5118022;27;20290;-38
2022/08/10 08:25:50;;;;;;;0.10;0.10;;;;;;;23.47;49.12;102199.75;5088481;27;20050;-38
2022/08/10 08:28:16;;;;;;;0.10;0.10;;;;;;;23.45;50.04;102202.81;5113973;27;20133;-38
2022/08/10 08:30:41;;;;;;;0.10;0.10;;;;;;;23.46;50.12;102203.66;5117483;27;20104;-38
2022/08/10 08:33:16;;;;;;;0.10;0.10;;;;;;;23.47;49.96;102199.75;5096061;27;20043;-38
2022/08/10 08:36:02;;;;;;;0.10;0.10;;;;;;;23.47;49.44;102196.97;5090216;27;20244;-37
2022/08/10 08:38:29;;;;;;;0.10;0.10;;;;;;;23.47;49.64;102195.00;5114440;27;20043;-37
2022/08/10 08:41:10;;;;;;;0.10;0.10;;;;;;;23.47;49.58;102192.22;5108084;27;20384;-37
2022/08/10 08:43:50;;;;;;;0.10;0.10;;;;;;;23.46;50.51;102189.75;5113003;27;20131;-37
2022/08/10 08:46:43;;;;;;;0.10;0.10;;;;;;;23.47;50.40;102188.63;5093524;27;20134;-38
2022/08/10 08:49:33;;;;;;;0.10;0.10;;;;;;;23.48;50.04;102195.84;5094738;27;20145;-38
2022/08/10 08:52:59;;;;;;;0.10;0.10;;;;;;;23.48;50.56;102188.31;5095596;27;20071;-38
2022/08/10 08:55:34;;;;;;;0.10;0.10;;;;;;;23.47;50.09;102181.09;5081264;27;20071;-38
2022/08/10 08:58:31;;;;;;;0.10;0.10;;;;;;;23.47;50.31;102177.50;5089543;27;20069;-37
2022/08/10 09:01:09;;;;;;;0.10;0.10;;;;;;;23.48;50.64;102181.94;5110565;27;20189;-37
2022/08/10 09:03:50;;;;;;;0.10;0.10;;;;;;;23.51;49.74;102173.03;5110914;27;20423;-37
2022/08/10 09:06:47;;;;;;;0.10;0.10;;;;;;;23.51;49.94;102173.88;5089090;27;20608;-38
2022/08/10 09:09:37;;;;;;;0.10;0.10;;;;;;;23.52;49.44;102171.91;5096046;27;20186;-38
2022/08/10 09:12:12;;;;;;;0.10;0.10;;;;;;;23.50;50.40;102166.66;5085985;27;20170;-37
2022/08/10 09:15:02;;;;;;;0.10;0.10;;;;;;;23.52;49.86;102163.59;5090353;27;20317;-37
2022/08/10 09:17:41;;;;;;;0.10;0.10;;;;;;;23.52;50.41;102160.81;5080807;27;20067;-38
2022/08/10 09:20:35;;;;;;;0.10;0.10;;;;;;;23.54;50.45;102164.97;5115913;27;20555;-38
2022/08/10 09:23:23;;;;;;;0.10;0.10;;;;;;;23.53;49.71;102152.19;5101580;27;21950;-37
2022/08/10 09:26:14;;;;;;;0.10;0.10;;;;;;;23.51;50.61;102151.63;5096090;27;20496;-37
2022/08/10 09:28:41;;;;;;;0.08;0.08;;;;;;;23.52;49.50;102150.50;5090567;27;20571;-38
2022/08/10 09:31:09;;;;;;;0.10;0.10;;;;;;;23.53;50.38;102156.91;5114607;27;20131;-37
2022/08/10 09:34:03;;;;;;;0.10;0.10;;;;;;;23.53;50.84;102146.63;5105729;27;20077;-37
2022/08/10 09:36:59;;;;;;;0.10;0.10;;;;;;;23.53;50.71;102151.34;5094200;27;20395;-38
2022/08/10 09:39:48;;;;;;;0.22;0.13;;;;;;;23.53;48.82;102143.00;5113303;27;20063;-38
2022/08/10 09:43:03;;;;;;;0.10;0.10;;;;;;;23.59;48.66;102146.63;5093793;27;20112;-37
2022/08/10 09:45:58;;;;;;;0.10;0.10;;;;;;;23.60;49.39;102140.78;5094846;27;20054;-37
2022/08/10 09:48:30;;;;;;;0.10;0.10;;;;;;;23.59;49.98;102136.31;5106842;27;20573;-38
2022/08/10 09:51:13;;;;;;;0.05;0.05;;;;;;;23.59;49.42;102135.50;5112371;27;20142;-38
2022/08/10 09:54:16;;;;;;;0.10;0.10;;;;;;;23.59;49.87;102128.00;5103264;27;20058;-37
2022/08/10 09:56:48;;;;;;;0.10;0.10;;;;;;;23.59;50.03;102128.00;5097261;27;20066;-38
2022/08/10 09:59:22;;;;;;;0.10;0.10;;;;;;;23.59;50.25;102124.38;5081280;27;20053;-38
2022/08/10 10:02:19;;;;;;;0.10;0.10;;;;;;;23.60;49.26;102123.25;5102833;27;20159;-37
2022/08/10 10:04:55;;;;;;;0.10;0.10;;;;;;;23.62;48.96;102123.78;5097638;27;20035;-38
2022/08/10 10:07:25;;;;;;;0.10;0.10;;;;;;;23.60;49.23;102109.34;5112826;27;20150;-37
2022/08/10 10:10:11;;;;;;;0.10;0.10;;;;;;;23.60;49.50;102118.53;5095130;27;20078;-37
2022/08/10 10:12:57;;;;;;;0.10;0.10;;;;;;;23.59;49.12;102110.47;5095583;27;20137;-37
2022/08/10 10:15:34;;;;;;;0.10;0.10;;;;;;;23.59;48.91;102104.91;5085254;27;20102;-37
2022/08/10 10:21:19;;;;;;;0.10;0.10;;;;;;;23.61;50.67;102099.88;5152678;27;20225;-34
2022/08/10 10:24:33;;;;;;;0.10;0.10;;;;;;;23.60;50.60;102095.44;5128984;27;20394;-34
2022/08/10 10:27:02;;;;;;;0.10;0.10;;;;;;;23.63;47.51;102095.72;5129439;27;20141;-35
2022/08/10 10:29:43;;;;;;;0.10;0.10;;;;;;;23.63;48.98;102104.06;5128241;27;20459;-34
2022/08/10 10:32:37;;;;;;;0.10;0.10;;;;;;;23.64;48.63;102093.75;5149139;27;20088;-36
2022/08/10 10:35:23;;;;;;;0.10;0.10;;;;;;;23.63;48.91;102081.81;5129206;27;20047;-36
2022/08/10 10:37:50;;;;;;;0.10;0.10;;;;;;;23.64;50.01;102082.63;5147297;27;20050;-35
2022/08/10 10:40:42;;;;;;;0.10;0.10;;;;;;;23.66;49.17;102086.84;5144500;27;20058;-34
2022/08/10 10:43:35;;;;;;;0.10;0.10;;;;;;;23.65;49.60;102078.78;5125846;27;20567;-34
2022/08/10 10:46:38;;;;;;;0.10;0.10;;;;;;;23.65;50.20;102076.81;5126564;27;20502;-35
2022/08/10 10:49:27;;;;;;;0.10;0.10;;;;;;;23.66;49.05;102077.66;5136338;27;20619;-34
2022/08/10 10:52:03;;;;;;;0.10;0.10;;;;;;;23.67;49.20;102071.81;5140671;27;20133;-34
2022/08/10 10:54:39;;;;;;;0.10;0.10;;;;;;;23.66;49.06;102056.25;5153936;27;21213;-34
2022/08/10 10:57:17;;;;;;;0.10;0.10;;;;;;;23.67;49.26;102049.56;5135869;27;20312;-34
2022/08/10 11:00:07;;;;;;;0.10;0.10;;;;;;;23.66;48.89;102056.25;5156010;27;20133;-34
2022/08/10 11:02:58;;;;;;;0.10;0.10;;;;;;;23.67;49.83;102049.56;5137554;27;20070;-35
2022/08/10 11:08:25;;;;;;;0.10;0.10;;;;;;;23.65;48.67;102054.56;5153672;27;20198;-34
2022/08/10 11:11:00;;;;;;;0.10;0.10;;;;;;;23.66;48.25;102047.91;5107385;27;20281;-34
2022/08/10 11:13:35;;;;;;;0.10;0.10;;;;;;;23.69;48.75;102049.28;5142508;27;20070;-34
2022/08/10 11:16:30;;;;;;;0.10;0.10;;;;;;;23.69;49.29;102047.31;5120487;27;20473;-35
2022/08/10 11:19:06;;;;;;;0.10;0.10;;;;;;;23.69;48.34;102038.16;5123796;27;20458;-34
2022/08/10 11:22:12;;;;;;;0.10;0.10;;;;;;;23.68;48.36;102028.97;5107028;27;20135;-35
2022/08/10 11:24:51;;;;;;;0.10;0.10;;;;;;;23.69;48.83;102035.38;5126315;27;20066;-34
2022/08/10 11:27:38;;;;;;;0.10;0.10;;;;;;;23.71;48.76;102031.19;5142249;27;20125;-35
2022/08/10 11:30:06;;;;;;;0.10;0.10;;;;;;;23.71;48.95;102027.59;5124064;27;20100;-34
2022/08/10 11:32:56;;;;;;;0.10;0.10;;;;;;;23.71;48.57;102025.63;5124555;27;20100;-34
2022/08/10 11:35:29;;;;;;;0.10;0.10;;;;;;;23.69;49.91;102025.06;5126864;27;20121;-36
2022/08/10 11:38:14;;;;;;;0.10;0.10;;;;;;;23.71;48.67;102025.63;5141402;27;20134;-34
2022/08/10 11:43:42;;;;;;;0.10;0.10;;;;;;;23.70;46.58;102023.13;5158526;27;20206;-35
2022/08/10 11:46:30;;;;;;;0.10;0.10;;;;;;;23.72;49.12;102013.38;5151875;27;20075;-35
2022/08/10 11:49:18;;;;;;;0.10;0.10;;;;;;;23.72;49.53;102009.78;5113087;27;20506;-34
2022/08/10 11:51:47;;;;;;;0.10;0.10;;;;;;;23.78;48.34;102003.06;5136947;27;20070;-34
2022/08/10 11:54:39;;;;;;;0.10;0.10;;;;;;;23.75;49.14;101998.91;5148901;27;20449;-35
2022/08/10 11:57:05;;;;;;;0.10;0.10;;;;;;;23.74;49.27;102001.97;5135378;27;20129;-35
2022/08/10 12:00:04;;;;;;;0.10;0.10;;;;;;;23.74;48.73;101996.41;5148063;27;20122;-35
2022/08/10 12:02:31;;;;;;;0.10;0.10;;;;;;;23.78;47.88;101997.50;5121403;27;20042;-34
2022/08/10 12:05:22;;;;;;;0.10;0.10;;;;;;;23.77;47.61;101991.09;5134928;27;20055;-35
2022/08/10 12:08:08;;;;;;;0.10;0.10;;;;;;;23.75;48.56;101982.22;5113969;27;20054;-35
2022/08/10 12:10:54;;;;;;;0.10;0.10;;;;;;;23.75;47.65;101985.00;5115090;27;20115;-34
2022/08/10 12:13:25;;;;;;;0.10;0.10;;;;;;;23.77;48.42;101995.84;5123762;27;20482;-35
2022/08/10 12:16:02;;;;;;;0.10;0.10;;;;;;;23.77;49.35;101996.66;5139558;27;20189;-35
2022/08/10 12:18:45;;;;;;;0.10;0.10;;;;;;;23.76;49.35;101996.97;5125383;27;20448;-35